sensor_id;sensor_type;location;lat;lon;timestamp;temperature;humidity
16663;DHT22;8445;51.270;9.434;2024-02-21T00:01:07;7.60;73.20
16663;DHT22;8445;51.270;9.434;2024-02-21T00:03:34;7.60;73.50
16663;DHT22;8445;51.270;9.434;2024-02-21T00:06:00;7.50;73.70
16663;DHT22;8445;51.270;9.434;2024-02-21T00:08:25;7.50;73.90
16663;DHT22;8445;51.270;9.434;2024-02-21T00:10:51;7.50;74.10
16663;DHT22;8445;51.270;9.434;2024-02-21T00:13:17;7.50;74.30
16663;DHT22;8445;51.270;9.434;2024-02-21T00:15:43;7.40;74.20
16663;DHT22;8445;51.270;9.434;2024-02-21T00:18:09;7.40;74.00
16663;DHT22;8445;51.270;9.434;2024-02-21T00:20:36;7.30;73.90
16663;DHT22;8445;51.270;9.434;2024-02-21T00:23:02;7.30;73.80
16663;DHT22;8445;51.270;9.434;2024-02-21T00:25:28;7.30;74.00
16663;DHT22;8445;51.270;9.434;2024-02-21T00:27:54;7.30;74.20
16663;DHT22;8445;51.270;9.434;2024-02-21T00:30:21;7.30;74.50
16663;DHT22;8445;51.270;9.434;2024-02-21T00:32:47;7.20;74.50
16663;DHT22;8445;51.270;9.434;2024-02-21T00:35:14;7.20;74.80
16663;DHT22;8445;51.270;9.434;2024-02-21T00:37:40;7.20;75.10
16663;DHT22;8445;51.270;9.434;2024-02-21T00:40:06;7.20;75.40
16663;DHT22;8445;51.270;9.434;2024-02-21T00:42:32;7.20;75.20
16663;DHT22;8445;51.270;9.434;2024-02-21T00:44:58;7.30;75.20
16663;DHT22;8445;51.270;9.434;2024-02-21T00:47:24;7.20;75.40
16663;DHT22;8445;51.270;9.434;2024-02-21T00:49:50;7.20;75.10
16663;DHT22;8445;51.270;9.434;2024-02-21T00:52:16;7.30;75.00
16663;DHT22;8445;51.270;9.434;2024-02-21T00:54:42;7.30;74.80
16663;DHT22;8445;51.270;9.434;2024-02-21T00:57:08;7.30;75.10
16663;DHT22;8445;51.270;9.434;2024-02-21T00:59:34;7.30;75.50
16663;DHT22;8445;51.270;9.434;2024-02-21T01:02:00;7.40;75.10
16663;DHT22;8445;51.270;9.434;2024-02-21T01:04:25;7.40;75.20
16663;DHT22;8445;51.270;9.434;2024-02-21T01:06:51;7.40;75.00
16663;DHT22;8445;51.270;9.434;2024-02-21T01:09:17;7.40;75.30
16663;DHT22;8445;51.270;9.434;2024-02-21T01:11:43;7.40;75.20
16663;DHT22;8445;51.270;9.434;2024-02-21T01:14:09;7.40;75.10
16663;DHT22;8445;51.270;9.434;2024-02-21T01:16:36;7.40;75.00
16663;DHT22;8445;51.270;9.434;2024-02-21T01:19:02;7.50;75.00
16663;DHT22;8445;51.270;9.434;2024-02-21T01:21:28;7.50;75.10
16663;DHT22;8445;51.270;9.434;2024-02-21T01:23:54;7.50;75.10
16663;DHT22;8445;51.270;9.434;2024-02-21T01:26:20;7.50;75.30
16663;DHT22;8445;51.270;9.434;2024-02-21T01:28:46;7.50;75.20
16663;DHT22;8445;51.270;9.434;2024-02-21T01:31:12;7.50;75.30
16663;DHT22;8445;51.270;9.434;2024-02-21T01:33:38;7.50;75.30
16663;DHT22;8445;51.270;9.434;2024-02-21T01:36:04;7.50;75.30
16663;DHT22;8445;51.270;9.434;2024-02-21T01:38:33;7.60;75.20
16663;DHT22;8445;51.270;9.434;2024-02-21T01:41:00;7.60;75.20
16663;DHT22;8445;51.270;9.434;2024-02-21T01:43:26;7.60;75.20
16663;DHT22;8445;51.270;9.434;2024-02-21T01:45:53;7.60;75.50
16663;DHT22;8445;51.270;9.434;2024-02-21T01:48:24;7.60;75.50
16663;DHT22;8445;51.270;9.434;2024-02-21T01:50:52;7.60;75.50
16663;DHT22;8445;51.270;9.434;2024-02-21T01:53:21;7.60;75.60
16663;DHT22;8445;51.270;9.434;2024-02-21T01:55:50;7.60;75.70
16663;DHT22;8445;51.270;9.434;2024-02-21T01:58:18;7.60;75.60
16663;DHT22;8445;51.270;9.434;2024-02-21T02:00:46;7.60;75.70
16663;DHT22;8445;51.270;9.434;2024-02-21T02:03:13;7.60;75.50
16663;DHT22;8445;51.270;9.434;2024-02-21T02:05:46;7.60;75.70
16663;DHT22;8445;51.270;9.434;2024-02-21T02:08:14;7.60;75.70
16663;DHT22;8445;51.270;9.434;2024-02-21T02:10:45;7.60;75.90
16663;DHT22;8445;51.270;9.434;2024-02-21T02:13:11;7.60;75.90
16663;DHT22;8445;51.270;9.434;2024-02-21T02:15:57;7.60;75.90
16663;DHT22;8445;51.270;9.434;2024-02-21T02:18:23;7.60;75.70
16663;DHT22;8445;51.270;9.434;2024-02-21T02:20:49;7.60;75.70
16663;DHT22;8445;51.270;9.434;2024-02-21T02:25:51;7.60;75.90
16663;DHT22;8445;51.270;9.434;2024-02-21T02:28:18;7.60;76.00
16663;DHT22;8445;51.270;9.434;2024-02-21T02:30:44;7.60;75.90
16663;DHT22;8445;51.270;9.434;2024-02-21T02:33:11;7.60;75.80
16663;DHT22;8445;51.270;9.434;2024-02-21T02:35:37;7.60;75.70
16663;DHT22;8445;51.270;9.434;2024-02-21T02:38:03;7.60;75.70
16663;DHT22;8445;51.270;9.434;2024-02-21T02:40:31;7.60;75.80
16663;DHT22;8445;51.270;9.434;2024-02-21T02:42:58;7.60;75.80
16663;DHT22;8445;51.270;9.434;2024-02-21T02:45:25;7.60;75.70
16663;DHT22;8445;51.270;9.434;2024-02-21T02:47:55;7.60;75.70
16663;DHT22;8445;51.270;9.434;2024-02-21T02:50:26;7.60;75.60
16663;DHT22;8445;51.270;9.434;2024-02-21T02:52:56;7.60;75.50
16663;DHT22;8445;51.270;9.434;2024-02-21T02:55:22;7.60;75.70
16663;DHT22;8445;51.270;9.434;2024-02-21T02:57:48;7.60;75.70
16663;DHT22;8445;51.270;9.434;2024-02-21T03:00:14;7.60;75.70
16663;DHT22;8445;51.270;9.434;2024-02-21T03:02:42;7.60;75.70
16663;DHT22;8445;51.270;9.434;2024-02-21T03:05:17;7.60;75.70
16663;DHT22;8445;51.270;9.434;2024-02-21T03:07:47;7.60;75.60
16663;DHT22;8445;51.270;9.434;2024-02-21T03:10:15;7.60;75.70
16663;DHT22;8445;51.270;9.434;2024-02-21T03:12:42;7.60;75.70
16663;DHT22;8445;51.270;9.434;2024-02-21T03:15:08;7.60;75.60
16663;DHT22;8445;51.270;9.434;2024-02-21T03:17:34;7.60;75.50
16663;DHT22;8445;51.270;9.434;2024-02-21T03:20:03;7.60;75.60
16663;DHT22;8445;51.270;9.434;2024-02-21T03:22:37;7.60;75.50
16663;DHT22;8445;51.270;9.434;2024-02-21T03:25:03;7.60;75.60
16663;DHT22;8445;51.270;9.434;2024-02-21T03:27:30;7.60;75.50
16663;DHT22;8445;51.270;9.434;2024-02-21T03:29:56;7.60;75.60
16663;DHT22;8445;51.270;9.434;2024-02-21T03:32:24;7.60;75.80
16663;DHT22;8445;51.270;9.434;2024-02-21T03:34:50;7.60;75.80
16663;DHT22;8445;51.270;9.434;2024-02-21T03:37:16;7.50;75.80
16663;DHT22;8445;51.270;9.434;2024-02-21T03:39:42;7.60;75.80
16663;DHT22;8445;51.270;9.434;2024-02-21T03:42:08;7.60;75.70
16663;DHT22;8445;51.270;9.434;2024-02-21T03:44:34;7.60;75.80
16663;DHT22;8445;51.270;9.434;2024-02-21T03:47:00;7.60;75.80
16663;DHT22;8445;51.270;9.434;2024-02-21T03:49:26;7.60;75.70
16663;DHT22;8445;51.270;9.434;2024-02-21T03:51:52;7.60;75.60
16663;DHT22;8445;51.270;9.434;2024-02-21T03:54:19;7.60;75.60
16663;DHT22;8445;51.270;9.434;2024-02-21T03:56:45;7.60;75.70
16663;DHT22;8445;51.270;9.434;2024-02-21T03:59:13;7.60;75.70
16663;DHT22;8445;51.270;9.434;2024-02-21T04:01:39;7.60;75.70
16663;DHT22;8445;51.270;9.434;2024-02-21T04:04:05;7.60;75.60
16663;DHT22;8445;51.270;9.434;2024-02-21T04:06:31;7.60;75.50
16663;DHT22;8445;51.270;9.434;2024-02-21T04:08:57;7.70;75.70
16663;DHT22;8445;51.270;9.434;2024-02-21T04:11:23;7.60;75.80
16663;DHT22;8445;51.270;9.434;2024-02-21T04:13:49;7.60;75.80
16663;DHT22;8445;51.270;9.434;2024-02-21T04:16:16;7.60;75.80
16663;DHT22;8445;51.270;9.434;2024-02-21T04:18:43;7.60;75.80
16663;DHT22;8445;51.270;9.434;2024-02-21T04:21:09;7.60;75.90
16663;DHT22;8445;51.270;9.434;2024-02-21T04:23:35;7.60;76.10
16663;DHT22;8445;51.270;9.434;2024-02-21T04:26:02;7.60;76.10
16663;DHT22;8445;51.270;9.434;2024-02-21T04:28:28;7.50;76.00
16663;DHT22;8445;51.270;9.434;2024-02-21T04:30:53;7.50;76.10
16663;DHT22;8445;51.270;9.434;2024-02-21T04:33:19;7.50;76.10
16663;DHT22;8445;51.270;9.434;2024-02-21T04:35:45;7.50;76.20
16663;DHT22;8445;51.270;9.434;2024-02-21T04:38:11;7.40;76.30
16663;DHT22;8445;51.270;9.434;2024-02-21T04:40:37;7.40;76.40
16663;DHT22;8445;51.270;9.434;2024-02-21T04:43:03;7.40;76.40
16663;DHT22;8445;51.270;9.434;2024-02-21T04:45:29;7.30;76.50
16663;DHT22;8445;51.270;9.434;2024-02-21T04:47:55;7.30;76.60
16663;DHT22;8445;51.270;9.434;2024-02-21T04:50:21;7.20;76.50
16663;DHT22;8445;51.270;9.434;2024-02-21T04:52:47;7.20;76.50
16663;DHT22;8445;51.270;9.434;2024-02-21T04:55:13;7.20;76.50
16663;DHT22;8445;51.270;9.434;2024-02-21T04:57:38;7.00;76.60
16663;DHT22;8445;51.270;9.434;2024-02-21T05:00:06;7.00;76.60
16663;DHT22;8445;51.270;9.434;2024-02-21T05:02:32;6.90;76.80
16663;DHT22;8445;51.270;9.434;2024-02-21T05:04:58;6.90;76.80
16663;DHT22;8445;51.270;9.434;2024-02-21T05:07:24;6.80;77.20
16663;DHT22;8445;51.270;9.434;2024-02-21T05:09:51;6.80;77.50
16663;DHT22;8445;51.270;9.434;2024-02-21T05:12:17;6.70;77.70
16663;DHT22;8445;51.270;9.434;2024-02-21T05:14:42;6.70;77.80
16663;DHT22;8445;51.270;9.434;2024-02-21T05:17:08;6.70;78.00
16663;DHT22;8445;51.270;9.434;2024-02-21T05:19:34;6.70;78.20
16663;DHT22;8445;51.270;9.434;2024-02-21T05:22:00;6.70;78.50
16663;DHT22;8445;51.270;9.434;2024-02-21T05:24:26;6.70;78.60
16663;DHT22;8445;51.270;9.434;2024-02-21T05:26:53;6.70;78.50
16663;DHT22;8445;51.270;9.434;2024-02-21T05:29:19;6.70;78.70
16663;DHT22;8445;51.270;9.434;2024-02-21T05:34:17;6.80;78.90
16663;DHT22;8445;51.270;9.434;2024-02-21T05:36:44;6.90;78.70
16663;DHT22;8445;51.270;9.434;2024-02-21T05:39:10;6.90;78.60
16663;DHT22;8445;51.270;9.434;2024-02-21T05:41:36;7.00;78.50
16663;DHT22;8445;51.270;9.434;2024-02-21T05:44:02;7.00;78.50
16663;DHT22;8445;51.270;9.434;2024-02-21T05:46:28;7.00;78.30
16663;DHT22;8445;51.270;9.434;2024-02-21T05:48:54;7.10;78.20
16663;DHT22;8445;51.270;9.434;2024-02-21T05:51:20;7.10;78.10
16663;DHT22;8445;51.270;9.434;2024-02-21T05:53:46;7.20;78.00
16663;DHT22;8445;51.270;9.434;2024-02-21T05:56:13;7.20;78.00
16663;DHT22;8445;51.270;9.434;2024-02-21T05:58:40;7.20;77.80
16663;DHT22;8445;51.270;9.434;2024-02-21T06:01:07;7.20;77.70
16663;DHT22;8445;51.270;9.434;2024-02-21T06:03:33;7.30;77.80
16663;DHT22;8445;51.270;9.434;2024-02-21T06:06:00;7.30;77.70
16663;DHT22;8445;51.270;9.434;2024-02-21T06:08:26;7.30;77.60
16663;DHT22;8445;51.270;9.434;2024-02-21T06:10:52;7.40;77.70
16663;DHT22;8445;51.270;9.434;2024-02-21T06:13:21;7.40;77.60
16663;DHT22;8445;51.270;9.434;2024-02-21T06:15:47;7.40;77.50
16663;DHT22;8445;51.270;9.434;2024-02-21T06:18:13;7.40;77.40
16663;DHT22;8445;51.270;9.434;2024-02-21T06:20:39;7.40;77.40
16663;DHT22;8445;51.270;9.434;2024-02-21T06:23:06;7.50;77.30
16663;DHT22;8445;51.270;9.434;2024-02-21T06:25:32;7.50;77.30
16663;DHT22;8445;51.270;9.434;2024-02-21T06:27:58;7.50;77.20
16663;DHT22;8445;51.270;9.434;2024-02-21T06:30:24;7.50;77.20
16663;DHT22;8445;51.270;9.434;2024-02-21T06:32:50;7.50;77.10
16663;DHT22;8445;51.270;9.434;2024-02-21T06:35:16;7.50;77.10
16663;DHT22;8445;51.270;9.434;2024-02-21T06:37:42;7.50;77.00
16663;DHT22;8445;51.270;9.434;2024-02-21T06:40:10;7.60;76.90
16663;DHT22;8445;51.270;9.434;2024-02-21T06:42:36;7.60;76.80
16663;DHT22;8445;51.270;9.434;2024-02-21T06:45:03;7.60;76.70
16663;DHT22;8445;51.270;9.434;2024-02-21T06:47:31;7.60;76.60
16663;DHT22;8445;51.270;9.434;2024-02-21T06:49:57;7.60;76.60
16663;DHT22;8445;51.270;9.434;2024-02-21T06:52:23;7.60;76.60
16663;DHT22;8445;51.270;9.434;2024-02-21T06:54:50;7.60;76.60
16663;DHT22;8445;51.270;9.434;2024-02-21T06:57:16;7.60;76.60
16663;DHT22;8445;51.270;9.434;2024-02-21T06:59:42;7.70;76.40
16663;DHT22;8445;51.270;9.434;2024-02-21T07:02:12;7.70;76.40
16663;DHT22;8445;51.270;9.434;2024-02-21T07:04:38;7.70;76.40
16663;DHT22;8445;51.270;9.434;2024-02-21T07:07:04;7.70;76.30
16663;DHT22;8445;51.270;9.434;2024-02-21T07:09:30;7.70;76.30
16663;DHT22;8445;51.270;9.434;2024-02-21T07:11:58;7.80;76.20
16663;DHT22;8445;51.270;9.434;2024-02-21T07:14:25;7.80;76.20
16663;DHT22;8445;51.270;9.434;2024-02-21T07:16:51;7.80;76.20
16663;DHT22;8445;51.270;9.434;2024-02-21T07:19:17;7.80;76.10
16663;DHT22;8445;51.270;9.434;2024-02-21T07:21:43;7.80;76.00
16663;DHT22;8445;51.270;9.434;2024-02-21T07:24:09;7.90;75.90
16663;DHT22;8445;51.270;9.434;2024-02-21T07:26:35;8.00;75.70
16663;DHT22;8445;51.270;9.434;2024-02-21T07:29:01;8.00;75.60
16663;DHT22;8445;51.270;9.434;2024-02-21T07:31:27;8.00;75.40
16663;DHT22;8445;51.270;9.434;2024-02-21T07:33:53;8.10;75.30
16663;DHT22;8445;51.270;9.434;2024-02-21T07:36:30;8.10;75.10
16663;DHT22;8445;51.270;9.434;2024-02-21T07:38:56;8.10;75.00
16663;DHT22;8445;51.270;9.434;2024-02-21T07:41:22;8.10;74.90
16663;DHT22;8445;51.270;9.434;2024-02-21T07:43:48;8.10;75.00
16663;DHT22;8445;51.270;9.434;2024-02-21T07:46:14;8.10;74.80
16663;DHT22;8445;51.270;9.434;2024-02-21T07:48:40;8.10;74.70
16663;DHT22;8445;51.270;9.434;2024-02-21T07:51:06;8.20;74.70
16663;DHT22;8445;51.270;9.434;2024-02-21T07:53:32;8.20;74.70
16663;DHT22;8445;51.270;9.434;2024-02-21T07:55:58;8.20;74.60
16663;DHT22;8445;51.270;9.434;2024-02-21T07:58:24;8.30;74.60
16663;DHT22;8445;51.270;9.434;2024-02-21T08:00:50;8.30;74.50
16663;DHT22;8445;51.270;9.434;2024-02-21T08:03:15;8.30;74.40
16663;DHT22;8445;51.270;9.434;2024-02-21T08:05:43;8.30;74.30
16663;DHT22;8445;51.270;9.434;2024-02-21T08:08:09;8.40;74.40
16663;DHT22;8445;51.270;9.434;2024-02-21T08:10:35;8.40;74.30
16663;DHT22;8445;51.270;9.434;2024-02-21T08:13:01;8.50;74.30
16663;DHT22;8445;51.270;9.434;2024-02-21T08:15:27;8.60;74.10
16663;DHT22;8445;51.270;9.434;2024-02-21T08:17:58;8.70;73.80
16663;DHT22;8445;51.270;9.434;2024-02-21T08:20:27;8.80;73.60
16663;DHT22;8445;51.270;9.434;2024-02-21T08:22:53;8.90;73.50
16663;DHT22;8445;51.270;9.434;2024-02-21T08:25:19;9.00;73.40
16663;DHT22;8445;51.270;9.434;2024-02-21T08:27:44;9.00;73.40
16663;DHT22;8445;51.270;9.434;2024-02-21T08:30:11;9.10;73.00
16663;DHT22;8445;51.270;9.434;2024-02-21T08:32:37;9.20;72.60
16663;DHT22;8445;51.270;9.434;2024-02-21T08:35:03;9.20;72.30
16663;DHT22;8445;51.270;9.434;2024-02-21T08:37:30;9.40;72.10
16663;DHT22;8445;51.270;9.434;2024-02-21T08:39:56;9.40;71.70
16663;DHT22;8445;51.270;9.434;2024-02-21T08:42:22;9.40;71.60
16663;DHT22;8445;51.270;9.434;2024-02-21T08:44:49;9.50;71.70
16663;DHT22;8445;51.270;9.434;2024-02-21T08:47:14;9.50;71.50
16663;DHT22;8445;51.270;9.434;2024-02-21T08:49:40;9.60;71.20
16663;DHT22;8445;51.270;9.434;2024-02-21T08:52:06;9.70;70.80
16663;DHT22;8445;51.270;9.434;2024-02-21T08:54:32;9.80;70.60
16663;DHT22;8445;51.270;9.434;2024-02-21T08:56:59;9.80;70.60
16663;DHT22;8445;51.270;9.434;2024-02-21T08:59:25;9.90;70.40
16663;DHT22;8445;51.270;9.434;2024-02-21T09:01:52;10.00;70.20
16663;DHT22;8445;51.270;9.434;2024-02-21T09:04:20;10.00;69.90
16663;DHT22;8445;51.270;9.434;2024-02-21T09:06:46;10.10;69.60
16663;DHT22;8445;51.270;9.434;2024-02-21T09:09:13;10.20;69.50
16663;DHT22;8445;51.270;9.434;2024-02-21T09:11:38;10.30;69.60
16663;DHT22;8445;51.270;9.434;2024-02-21T09:14:06;10.50;69.10
16663;DHT22;8445;51.270;9.434;2024-02-21T09:16:32;10.70;68.90
16663;DHT22;8445;51.270;9.434;2024-02-21T09:18:58;10.90;68.40
16663;DHT22;8445;51.270;9.434;2024-02-21T09:21:27;11.00;67.90
16663;DHT22;8445;51.270;9.434;2024-02-21T09:23:53;11.10;67.70
16663;DHT22;8445;51.270;9.434;2024-02-21T09:26:20;11.30;67.20
16663;DHT22;8445;51.270;9.434;2024-02-21T09:28:46;11.40;66.50
16663;DHT22;8445;51.270;9.434;2024-02-21T09:31:11;11.50;66.30
16663;DHT22;8445;51.270;9.434;2024-02-21T09:33:39;11.60;66.10
16663;DHT22;8445;51.270;9.434;2024-02-21T09:36:07;11.70;66.00
16663;DHT22;8445;51.270;9.434;2024-02-21T09:38:33;11.90;65.60
16663;DHT22;8445;51.270;9.434;2024-02-21T09:41:04;12.00;64.60
16663;DHT22;8445;51.270;9.434;2024-02-21T09:43:40;12.00;64.00
16663;DHT22;8445;51.270;9.434;2024-02-21T09:46:08;12.10;64.30
16663;DHT22;8445;51.270;9.434;2024-02-21T09:51:50;12.20;63.30
16663;DHT22;8445;51.270;9.434;2024-02-21T09:54:19;12.20;62.90
16663;DHT22;8445;51.270;9.434;2024-02-21T09:56:46;12.30;63.20
16663;DHT22;8445;51.270;9.434;2024-02-21T09:59:16;12.30;62.50
16663;DHT22;8445;51.270;9.434;2024-02-21T10:01:43;12.30;62.20
16663;DHT22;8445;51.270;9.434;2024-02-21T10:04:10;12.50;61.30
16663;DHT22;8445;51.270;9.434;2024-02-21T10:06:36;12.50;60.70
16663;DHT22;8445;51.270;9.434;2024-02-21T10:09:03;12.40;60.00
16663;DHT22;8445;51.270;9.434;2024-02-21T10:11:29;12.30;60.70
16663;DHT22;8445;51.270;9.434;2024-02-21T10:14:06;12.30;61.00
16663;DHT22;8445;51.270;9.434;2024-02-21T10:16:33;12.40;61.50
16663;DHT22;8445;51.270;9.434;2024-02-21T10:18:59;12.50;61.70
16663;DHT22;8445;51.270;9.434;2024-02-21T10:21:25;12.60;61.60
16663;DHT22;8445;51.270;9.434;2024-02-21T10:23:51;12.80;61.40
16663;DHT22;8445;51.270;9.434;2024-02-21T10:26:19;12.90;61.20
16663;DHT22;8445;51.270;9.434;2024-02-21T10:28:47;13.00;60.60
16663;DHT22;8445;51.270;9.434;2024-02-21T10:33:58;13.10;60.40
16663;DHT22;8445;51.270;9.434;2024-02-21T10:36:31;13.30;60.30
16663;DHT22;8445;51.270;9.434;2024-02-21T10:38:59;13.40;59.70
16663;DHT22;8445;51.270;9.434;2024-02-21T10:41:25;13.50;59.50
16663;DHT22;8445;51.270;9.434;2024-02-21T10:43:53;13.50;59.20
16663;DHT22;8445;51.270;9.434;2024-02-21T10:46:23;13.50;58.40
16663;DHT22;8445;51.270;9.434;2024-02-21T10:51:37;13.50;58.00
16663;DHT22;8445;51.270;9.434;2024-02-21T10:56:50;13.50;57.90
16663;DHT22;8445;51.270;9.434;2024-02-21T10:59:17;13.50;58.00
16663;DHT22;8445;51.270;9.434;2024-02-21T11:01:43;13.50;57.90
16663;DHT22;8445;51.270;9.434;2024-02-21T11:04:10;13.50;57.60
16663;DHT22;8445;51.270;9.434;2024-02-21T11:06:38;13.40;57.80
16663;DHT22;8445;51.270;9.434;2024-02-21T11:09:08;13.40;58.20
16663;DHT22;8445;51.270;9.434;2024-02-21T11:11:39;13.40;58.40
16663;DHT22;8445;51.270;9.434;2024-02-21T11:14:19;13.50;58.20
16663;DHT22;8445;51.270;9.434;2024-02-21T11:16:46;13.50;57.80
16663;DHT22;8445;51.270;9.434;2024-02-21T11:19:24;13.60;57.70
16663;DHT22;8445;51.270;9.434;2024-02-21T11:21:52;13.50;56.90
16663;DHT22;8445;51.270;9.434;2024-02-21T11:24:27;13.50;57.50
16663;DHT22;8445;51.270;9.434;2024-02-21T11:27:13;13.40;57.60
16663;DHT22;8445;51.270;9.434;2024-02-21T11:29:58;13.30;57.20
16663;DHT22;8445;51.270;9.434;2024-02-21T11:32:26;13.10;57.20
16663;DHT22;8445;51.270;9.434;2024-02-21T11:37:32;12.80;58.00
16663;DHT22;8445;51.270;9.434;2024-02-21T11:40:00;12.70;57.80
16663;DHT22;8445;51.270;9.434;2024-02-21T11:42:27;12.60;57.80
16663;DHT22;8445;51.270;9.434;2024-02-21T11:44:54;12.50;58.00
16663;DHT22;8445;51.270;9.434;2024-02-21T11:47:25;12.50;58.00
16663;DHT22;8445;51.270;9.434;2024-02-21T11:49:51;12.50;57.90
16663;DHT22;8445;51.270;9.434;2024-02-21T11:52:24;12.50;57.80
16663;DHT22;8445;51.270;9.434;2024-02-21T11:54:52;12.50;58.00
16663;DHT22;8445;51.270;9.434;2024-02-21T11:57:19;12.50;57.90
16663;DHT22;8445;51.270;9.434;2024-02-21T11:59:46;12.50;57.80
16663;DHT22;8445;51.270;9.434;2024-02-21T12:02:13;12.50;57.80
16663;DHT22;8445;51.270;9.434;2024-02-21T12:04:42;12.50;58.00
16663;DHT22;8445;51.270;9.434;2024-02-21T12:07:12;12.50;57.60
16663;DHT22;8445;51.270;9.434;2024-02-21T12:09:41;12.60;57.50
16663;DHT22;8445;51.270;9.434;2024-02-21T12:12:07;12.70;57.20
16663;DHT22;8445;51.270;9.434;2024-02-21T12:14:35;12.70;57.00
16663;DHT22;8445;51.270;9.434;2024-02-21T12:17:02;12.70;57.00
16663;DHT22;8445;51.270;9.434;2024-02-21T12:19:32;12.90;56.60
16663;DHT22;8445;51.270;9.434;2024-02-21T12:22:02;12.90;56.60
16663;DHT22;8445;51.270;9.434;2024-02-21T12:24:31;13.10;56.20
16663;DHT22;8445;51.270;9.434;2024-02-21T12:26:57;13.20;56.10
16663;DHT22;8445;51.270;9.434;2024-02-21T12:29:29;13.30;56.50
16663;DHT22;8445;51.270;9.434;2024-02-21T12:31:55;13.50;57.40
16663;DHT22;8445;51.270;9.434;2024-02-21T12:34:23;13.60;57.80
16663;DHT22;8445;51.270;9.434;2024-02-21T12:36:49;13.90;57.00
16663;DHT22;8445;51.270;9.434;2024-02-21T12:39:16;14.10;57.20
16663;DHT22;8445;51.270;9.434;2024-02-21T12:41:42;14.40;57.20
16663;DHT22;8445;51.270;9.434;2024-02-21T12:44:10;14.60;56.00
16663;DHT22;8445;51.270;9.434;2024-02-21T12:46:37;14.80;55.40
16663;DHT22;8445;51.270;9.434;2024-02-21T12:49:04;14.80;55.80
16663;DHT22;8445;51.270;9.434;2024-02-21T12:51:31;15.00;55.10
16663;DHT22;8445;51.270;9.434;2024-02-21T12:53:57;15.00;53.90
16663;DHT22;8445;51.270;9.434;2024-02-21T12:56:25;15.00;54.00
16663;DHT22;8445;51.270;9.434;2024-02-21T12:58:55;14.90;53.90
16663;DHT22;8445;51.270;9.434;2024-02-21T13:01:21;14.90;53.20
16663;DHT22;8445;51.270;9.434;2024-02-21T13:03:47;14.70;53.30
16663;DHT22;8445;51.270;9.434;2024-02-21T13:06:13;14.60;53.70
16663;DHT22;8445;51.270;9.434;2024-02-21T13:08:39;14.60;53.60
16663;DHT22;8445;51.270;9.434;2024-02-21T13:11:06;14.60;53.80
16663;DHT22;8445;51.270;9.434;2024-02-21T13:13:32;14.60;53.80
16663;DHT22;8445;51.270;9.434;2024-02-21T13:15:59;14.60;53.60
16663;DHT22;8445;51.270;9.434;2024-02-21T13:18:25;14.60;53.40
16663;DHT22;8445;51.270;9.434;2024-02-21T13:20:51;14.50;53.50
16663;DHT22;8445;51.270;9.434;2024-02-21T13:23:17;14.50;53.20
16663;DHT22;8445;51.270;9.434;2024-02-21T13:25:43;14.40;53.30
16663;DHT22;8445;51.270;9.434;2024-02-21T13:28:12;14.40;52.80
16663;DHT22;8445;51.270;9.434;2024-02-21T13:30:40;14.30;52.80
16663;DHT22;8445;51.270;9.434;2024-02-21T13:33:07;14.20;52.70
16663;DHT22;8445;51.270;9.434;2024-02-21T13:35:33;14.00;52.80
16663;DHT22;8445;51.270;9.434;2024-02-21T13:38:00;13.90;52.90
16663;DHT22;8445;51.270;9.434;2024-02-21T13:40:26;13.70;53.00
16663;DHT22;8445;51.270;9.434;2024-02-21T13:42:52;13.60;53.30
16663;DHT22;8445;51.270;9.434;2024-02-21T13:45:19;13.40;53.60
16663;DHT22;8445;51.270;9.434;2024-02-21T13:47:45;13.10;53.90
16663;DHT22;8445;51.270;9.434;2024-02-21T13:50:11;13.00;54.50
16663;DHT22;8445;51.270;9.434;2024-02-21T13:52:40;12.80;54.90
16663;DHT22;8445;51.270;9.434;2024-02-21T13:55:10;12.50;55.20
16663;DHT22;8445;51.270;9.434;2024-02-21T13:57:37;12.50;55.50
16663;DHT22;8445;51.270;9.434;2024-02-21T14:00:08;12.30;55.70
16663;DHT22;8445;51.270;9.434;2024-02-21T14:02:39;12.10;56.20
16663;DHT22;8445;51.270;9.434;2024-02-21T14:05:06;12.00;56.40
16663;DHT22;8445;51.270;9.434;2024-02-21T14:07:33;11.90;56.80
16663;DHT22;8445;51.270;9.434;2024-02-21T14:09:59;11.90;56.80
16663;DHT22;8445;51.270;9.434;2024-02-21T14:12:26;11.90;57.00
16663;DHT22;8445;51.270;9.434;2024-02-21T14:14:54;11.90;57.20
16663;DHT22;8445;51.270;9.434;2024-02-21T14:17:24;11.90;57.10
16663;DHT22;8445;51.270;9.434;2024-02-21T14:19:50;11.80;57.10
16663;DHT22;8445;51.270;9.434;2024-02-21T14:22:17;11.90;57.20
16663;DHT22;8445;51.270;9.434;2024-02-21T14:24:44;11.80;57.20
16663;DHT22;8445;51.270;9.434;2024-02-21T14:27:11;11.70;57.30
16663;DHT22;8445;51.270;9.434;2024-02-21T14:29:38;11.70;57.30
16663;DHT22;8445;51.270;9.434;2024-02-21T14:32:04;11.70;57.40
16663;DHT22;8445;51.270;9.434;2024-02-21T14:34:31;11.60;57.60
16663;DHT22;8445;51.270;9.434;2024-02-21T14:36:57;11.50;57.70
16663;DHT22;8445;51.270;9.434;2024-02-21T14:39:25;11.50;57.80
16663;DHT22;8445;51.270;9.434;2024-02-21T14:41:54;11.50;57.80
16663;DHT22;8445;51.270;9.434;2024-02-21T14:44:20;11.40;58.00
16663;DHT22;8445;51.270;9.434;2024-02-21T14:46:48;11.40;58.10
16663;DHT22;8445;51.270;9.434;2024-02-21T14:49:16;11.40;58.20
16663;DHT22;8445;51.270;9.434;2024-02-21T14:51:45;11.30;58.20
16663;DHT22;8445;51.270;9.434;2024-02-21T14:54:11;11.30;58.30
16663;DHT22;8445;51.270;9.434;2024-02-21T14:56:41;11.30;58.60
16663;DHT22;8445;51.270;9.434;2024-02-21T14:59:14;11.30;58.50
16663;DHT22;8445;51.270;9.434;2024-02-21T15:02:03;11.20;58.50
16663;DHT22;8445;51.270;9.434;2024-02-21T15:04:32;11.20;58.60
16663;DHT22;8445;51.270;9.434;2024-02-21T15:06:58;11.20;58.50
16663;DHT22;8445;51.270;9.434;2024-02-21T15:09:27;11.10;58.50
16663;DHT22;8445;51.270;9.434;2024-02-21T15:12:00;11.10;58.70
16663;DHT22;8445;51.270;9.434;2024-02-21T15:14:33;11.00;58.90
16663;DHT22;8445;51.270;9.434;2024-02-21T15:17:03;10.90;59.10
16663;DHT22;8445;51.270;9.434;2024-02-21T15:19:32;10.80;59.30
16663;DHT22;8445;51.270;9.434;2024-02-21T15:22:05;10.80;59.30
16663;DHT22;8445;51.270;9.434;2024-02-21T15:24:32;10.80;59.60
16663;DHT22;8445;51.270;9.434;2024-02-21T15:27:04;10.80;59.60
16663;DHT22;8445;51.270;9.434;2024-02-21T15:29:33;10.80;59.60
16663;DHT22;8445;51.270;9.434;2024-02-21T15:32:03;10.70;59.60
16663;DHT22;8445;51.270;9.434;2024-02-21T15:34:32;10.70;59.60
16663;DHT22;8445;51.270;9.434;2024-02-21T15:37:00;10.70;59.70
16663;DHT22;8445;51.270;9.434;2024-02-21T15:39:27;10.60;59.80
16663;DHT22;8445;51.270;9.434;2024-02-21T15:42:01;10.60;60.00
16663;DHT22;8445;51.270;9.434;2024-02-21T15:44:29;10.60;60.10
16663;DHT22;8445;51.270;9.434;2024-02-21T15:46:56;10.50;60.20
16663;DHT22;8445;51.270;9.434;2024-02-21T15:49:26;10.50;60.30
16663;DHT22;8445;51.270;9.434;2024-02-21T15:52:07;10.40;60.40
16663;DHT22;8445;51.270;9.434;2024-02-21T15:54:33;10.40;60.40
16663;DHT22;8445;51.270;9.434;2024-02-21T15:57:02;10.30;60.50
16663;DHT22;8445;51.270;9.434;2024-02-21T15:59:32;10.30;60.80
16663;DHT22;8445;51.270;9.434;2024-02-21T16:01:58;10.20;60.80
16663;DHT22;8445;51.270;9.434;2024-02-21T16:04:29;10.10;60.90
16663;DHT22;8445;51.270;9.434;2024-02-21T16:07:00;10.00;61.00
16663;DHT22;8445;51.270;9.434;2024-02-21T16:09:28;10.00;61.10
16663;DHT22;8445;51.270;9.434;2024-02-21T16:11:56;9.80;61.30
16663;DHT22;8445;51.270;9.434;2024-02-21T16:14:23;9.70;61.40